createdAt,value
2023-04-15T00:01:09.984Z,22.10
2023-04-15T00:03:38.717Z,22.10
2023-04-15T00:06:07.227Z,22.10
2023-04-15T00:08:35.605Z,22.10
2023-04-15T00:11:03.954Z,22.00
2023-04-15T00:13:32.804Z,22.00
2023-04-15T00:16:01.183Z,22.00
2023-04-15T00:18:29.552Z,22.00
2023-04-15T00:20:58.088Z,22.00
2023-04-15T00:23:27.056Z,22.00
2023-04-15T00:25:54.977Z,22.00
2023-04-15T00:28:23.256Z,22.00
2023-04-15T00:30:51.474Z,22.00
2023-04-15T00:33:20.188Z,21.90
2023-04-15T00:35:48.448Z,22.10
2023-04-15T00:38:16.809Z,22.40
2023-04-15T00:40:45.332Z,22.60
2023-04-15T00:43:13.649Z,22.70
2023-04-15T00:45:41.772Z,22.50
2023-04-15T00:48:11.508Z,22.40
2023-04-15T00:50:40.337Z,22.40
2023-04-15T00:53:08.687Z,22.30
2023-04-15T00:55:38.090Z,22.20
2023-04-15T00:58:06.247Z,22.20
2023-04-15T01:00:34.528Z,22.20
2023-04-15T01:03:02.884Z,22.20
2023-04-15T01:05:31.394Z,22.20
2023-04-15T01:07:59.755Z,22.20
2023-04-15T01:10:27.999Z,22.20
2023-04-15T01:12:56.478Z,22.10
2023-04-15T01:15:26.210Z,22.10
2023-04-15T01:17:54.747Z,22.10
2023-04-15T01:20:23.092Z,22.10
2023-04-15T01:22:51.601Z,22.10
2023-04-15T01:25:20.902Z,22.10
2023-04-15T01:27:49.407Z,22.00
2023-04-15T01:30:17.696Z,22.10
2023-04-15T01:32:45.931Z,22.10
2023-04-15T01:35:14.292Z,22.00
2023-04-15T01:37:42.426Z,22.10
2023-04-15T01:40:11.073Z,22.10
2023-04-15T01:42:39.290Z,22.00
2023-04-15T01:45:08.083Z,22.00
2023-04-15T01:47:39.128Z,22.00
2023-04-15T01:50:07.918Z,22.00
2023-04-15T01:52:35.948Z,21.90
2023-04-15T01:55:04.317Z,22.00
2023-04-15T01:57:32.803Z,22.00
2023-04-15T02:00:01.823Z,21.90
2023-04-15T02:02:41.671Z,22.00
2023-04-15T02:05:10.445Z,22.20
2023-04-15T02:07:38.545Z,22.40
2023-04-15T02:10:07.201Z,22.70
2023-04-15T02:12:37.111Z,22.70
2023-04-15T02:15:05.562Z,22.50
2023-04-15T02:17:36.967Z,22.40
2023-04-15T02:20:06.167Z,22.30
2023-04-15T02:22:35.023Z,22.20
2023-04-15T02:25:02.892Z,22.20
2023-04-15T02:27:33.362Z,22.10
2023-04-15T02:30:01.679Z,22.10
2023-04-15T02:32:29.949Z,22.10
2023-04-15T02:35:02.547Z,22.10
2023-04-15T02:37:31.032Z,22.10
2023-04-15T02:39:59.379Z,22.10
2023-04-15T02:42:27.634Z,22.00
2023-04-15T02:44:56.581Z,22.10
2023-04-15T02:47:30.298Z,22.00
2023-04-15T02:49:58.673Z,22.00
2023-04-15T02:52:26.953Z,22.00
2023-04-15T02:54:55.208Z,22.00
2023-04-15T02:57:23.537Z,22.00
2023-04-15T02:59:51.857Z,22.00
2023-04-15T03:02:20.352Z,22.00
2023-04-15T03:04:48.586Z,22.00
2023-04-15T03:07:18.100Z,22.00
2023-04-15T03:09:48.419Z,21.90
2023-04-15T03:12:16.935Z,21.90
2023-04-15T03:14:49.960Z,21.90
2023-04-15T03:17:18.655Z,21.90
2023-04-15T03:19:46.868Z,21.80
2023-04-15T03:22:15.448Z,22.00
2023-04-15T03:24:43.609Z,22.30
2023-04-15T03:27:12.227Z,22.50
2023-04-15T03:29:40.953Z,22.70
2023-04-15T03:32:09.217Z,22.80
2023-04-15T03:34:37.466Z,22.60
2023-04-15T03:37:06.599Z,22.40
2023-04-15T03:39:34.921Z,22.30
2023-04-15T03:42:03.152Z,22.20
2023-04-15T03:44:31.302Z,22.20
2023-04-15T03:46:59.659Z,22.40
2023-04-15T03:49:27.719Z,22.60
2023-04-15T03:51:56.004Z,22.80
2023-04-15T03:54:24.203Z,22.80
2023-04-15T03:56:52.492Z,22.60
2023-04-15T03:59:20.534Z,22.50
2023-04-15T04:01:48.818Z,22.30
2023-04-15T04:04:17.236Z,22.30
2023-04-15T04:06:46.668Z,22.20
2023-04-15T04:09:14.843Z,22.20
2023-04-15T04:11:42.973Z,22.20
2023-04-15T04:14:11.303Z,22.20
2023-04-15T04:16:39.519Z,22.10
2023-04-15T04:19:07.907Z,22.10
2023-04-15T04:21:36.345Z,22.00
2023-04-15T04:24:04.582Z,22.10
2023-04-15T04:26:32.904Z,22.10
2023-04-15T04:29:01.249Z,22.10
2023-04-15T04:31:29.871Z,22.00
2023-04-15T04:33:58.029Z,22.00
2023-04-15T04:36:26.216Z,22.00
2023-04-15T04:38:54.346Z,22.00
2023-04-15T04:41:22.482Z,21.90
2023-04-15T04:43:50.751Z,21.90
2023-04-15T04:46:19.088Z,22.10
2023-04-15T04:48:47.302Z,22.30
2023-04-15T04:51:15.595Z,22.50
2023-04-15T04:53:43.778Z,22.70
2023-04-15T04:56:12.078Z,22.80
2023-04-15T04:58:40.168Z,22.70
2023-04-15T05:01:08.504Z,22.60
2023-04-15T05:03:36.855Z,22.40
2023-04-15T05:06:05.469Z,22.30
2023-04-15T05:08:33.624Z,22.30
2023-04-15T05:11:01.958Z,22.20
2023-04-15T05:13:30.374Z,22.20
2023-04-15T05:15:58.593Z,22.20
2023-04-15T05:18:26.767Z,22.20
2023-04-15T05:20:55.057Z,22.10
2023-04-15T05:23:23.333Z,22.10
2023-04-15T05:25:51.575Z,22.00
2023-04-15T05:28:19.602Z,22.00
2023-04-15T05:30:47.956Z,21.90
2023-04-15T05:33:16.249Z,22.00
2023-04-15T05:35:44.557Z,22.10
2023-04-15T05:38:12.618Z,22.30
2023-04-15T05:40:41.005Z,22.60
2023-04-15T05:43:09.415Z,22.70
2023-04-15T05:45:37.671Z,22.80
2023-04-15T05:48:05.932Z,22.60
2023-04-15T05:50:34.267Z,22.40
2023-04-15T05:53:02.530Z,22.30
2023-04-15T05:55:30.749Z,22.20
2023-04-15T05:57:58.941Z,22.30
2023-04-15T06:00:27.183Z,22.60
2023-04-15T06:02:56.825Z,22.80
2023-04-15T06:05:25.536Z,22.90
2023-04-15T06:07:53.679Z,22.80
2023-04-15T06:10:21.981Z,22.60
2023-04-15T06:12:50.266Z,22.50
2023-04-15T06:15:18.649Z,22.40
2023-04-15T06:17:46.781Z,22.30
2023-04-15T06:20:15.015Z,22.20
2023-04-15T06:22:43.617Z,22.20
2023-04-15T06:25:11.584Z,22.10
2023-04-15T06:27:39.845Z,22.10
2023-04-15T06:30:08.595Z,22.10
2023-04-15T06:32:36.583Z,22.00
2023-04-15T06:35:05.112Z,22.00
2023-04-15T06:37:33.172Z,22.00
2023-04-15T06:40:01.472Z,22.00
2023-04-15T06:42:29.730Z,21.90
2023-04-15T06:44:58.061Z,21.90
2023-04-15T06:47:26.258Z,21.90
2023-04-15T06:49:54.665Z,22.10
2023-04-15T06:52:22.819Z,22.30
2023-04-15T06:54:51.043Z,22.50
2023-04-15T06:57:19.236Z,22.70
2023-04-15T06:59:47.410Z,22.80
2023-04-15T07:02:15.867Z,22.60
2023-04-15T07:04:44.182Z,22.30
2023-04-15T07:07:12.438Z,22.30
2023-04-15T07:09:40.677Z,22.40
2023-04-15T07:12:08.846Z,22.70
2023-04-15T07:14:37.198Z,22.80
2023-04-15T07:17:05.472Z,22.90
2023-04-15T07:19:33.842Z,22.80
2023-04-15T07:22:02.136Z,22.60
2023-04-15T07:24:30.548Z,22.40
2023-04-15T07:26:59.531Z,22.50
2023-04-15T07:29:29.206Z,22.70
2023-04-15T07:31:57.602Z,22.90
2023-04-15T07:34:25.884Z,23.10
2023-04-15T07:36:54.091Z,22.90
2023-04-15T07:39:22.331Z,22.70
2023-04-15T07:41:50.702Z,22.50
2023-04-15T07:44:19.205Z,22.50
2023-04-15T07:46:47.346Z,22.60
2023-04-15T07:49:15.608Z,22.80
2023-04-15T07:51:43.841Z,23.00
2023-04-15T07:54:12.174Z,23.00
2023-04-15T07:56:40.262Z,22.80
2023-04-15T07:59:08.834Z,22.70
2023-04-15T08:01:37.905Z,22.50
2023-04-15T08:04:06.345Z,22.40
2023-04-15T08:06:34.641Z,22.40
2023-04-15T08:09:03.082Z,22.40
2023-04-15T08:11:31.549Z,22.30
2023-04-15T08:13:59.823Z,22.30
2023-04-15T08:16:28.285Z,22.20
2023-04-15T08:18:57.431Z,22.10
2023-04-15T08:21:26.264Z,22.30
2023-04-15T08:23:54.130Z,22.50
2023-04-15T08:26:23.190Z,22.70
2023-04-15T08:28:51.552Z,22.90
2023-04-15T08:31:20.248Z,23.00
2023-04-15T08:33:49.050Z,22.80
2023-04-15T08:36:17.318Z,22.50
2023-04-15T08:38:45.957Z,22.40
2023-04-15T08:41:22.734Z,22.70
2023-04-15T08:44:04.212Z,23.00
2023-04-15T08:46:33.309Z,23.30
2023-04-15T08:49:05.472Z,23.60
2023-04-15T08:51:34.074Z,23.80
2023-04-15T08:54:02.886Z,23.90
2023-04-15T08:56:33.558Z,24.00
2023-04-15T08:59:02.540Z,24.10
2023-04-15T09:01:32.312Z,24.20
2023-04-15T09:04:03.433Z,24.30
2023-04-15T09:06:31.757Z,24.40
2023-04-15T09:09:00.354Z,24.40
2023-04-15T09:11:28.382Z,24.50
2023-04-15T09:13:57.511Z,24.50
2023-04-15T09:16:25.864Z,24.60
2023-04-15T09:18:54.480Z,24.60
2023-04-15T09:21:22.607Z,24.60
2023-04-15T09:23:59.384Z,24.70
2023-04-15T09:26:38.743Z,24.70
2023-04-15T09:29:11.691Z,24.70
2023-04-15T09:31:40.854Z,24.60
2023-04-15T09:34:09.117Z,24.50
2023-04-15T09:36:54.604Z,24.40
2023-04-15T09:39:23.102Z,24.40
2023-04-15T09:42:09.476Z,24.30
2023-04-15T09:44:38.393Z,24.40
2023-04-15T09:47:07.102Z,24.40
2023-04-15T09:49:35.475Z,24.50
2023-04-15T09:52:05.655Z,24.60
2023-04-15T09:54:36.449Z,24.60
2023-04-15T09:57:09.615Z,24.60
2023-04-15T09:59:37.933Z,24.70
2023-04-15T10:02:06.875Z,24.70
2023-04-15T10:04:41.836Z,24.80
2023-04-15T10:07:12.347Z,24.80
2023-04-15T10:09:40.761Z,24.80
2023-04-15T10:12:09.661Z,24.80
2023-04-15T10:14:39.213Z,24.80
2023-04-15T10:17:11.501Z,24.80
2023-04-15T10:19:41.084Z,24.90
2023-04-15T10:22:09.784Z,24.90
2023-04-15T10:24:39.468Z,24.90
2023-04-15T10:27:08.544Z,24.90
2023-04-15T10:29:37.277Z,24.90
2023-04-15T10:32:05.316Z,25.00
2023-04-15T10:34:34.148Z,25.00
2023-04-15T10:37:03.380Z,25.00
2023-04-15T10:39:34.938Z,25.00
2023-04-15T10:42:19.990Z,25.00
2023-04-15T10:44:57.272Z,25.10
2023-04-15T10:47:25.509Z,25.00
2023-04-15T10:49:59.461Z,25.10
2023-04-15T10:52:29.465Z,25.10
2023-04-15T10:55:25.120Z,25.20
2023-04-15T10:57:55.087Z,25.20
2023-04-15T11:00:27.434Z,25.20
2023-04-15T11:03:05.712Z,25.20
2023-04-15T11:05:43.145Z,25.20
2023-04-15T11:08:12.938Z,25.20
2023-04-15T11:10:41.212Z,25.20
2023-04-15T11:13:12.390Z,25.20
2023-04-15T11:15:48.600Z,25.20
2023-04-15T11:18:24.647Z,25.20
2023-04-15T11:20:57.983Z,25.20
2023-04-15T11:23:33.805Z,25.30
2023-04-15T11:26:04.371Z,25.30
2023-04-15T11:28:33.834Z,25.20
2023-04-15T11:31:09.947Z,25.30
2023-04-15T11:33:38.832Z,25.30
2023-04-15T11:36:07.242Z,25.30
2023-04-15T11:38:35.699Z,25.30
2023-04-15T11:41:03.670Z,25.30
2023-04-15T11:43:33.470Z,25.30
2023-04-15T11:46:03.595Z,25.30
2023-04-15T11:48:36.912Z,25.30
2023-04-15T11:51:07.270Z,25.30
2023-04-15T11:53:50.244Z,25.40
2023-04-15T11:56:19.229Z,25.40
2023-04-15T11:58:48.107Z,25.30
2023-04-15T12:01:16.231Z,25.40
2023-04-15T12:03:47.442Z,25.60
2023-04-15T12:06:26.164Z,25.60
2023-04-15T12:09:13.904Z,25.60
2023-04-15T12:11:48.910Z,25.60
2023-04-15T12:14:25.866Z,25.70
2023-04-15T12:16:58.339Z,25.70
2023-04-15T12:19:31.015Z,25.80
2023-04-15T12:22:09.214Z,25.70
2023-04-15T12:24:38.652Z,25.80
2023-04-15T12:27:08.708Z,25.80
2023-04-15T12:29:38.465Z,25.80
2023-04-15T12:32:10.704Z,25.90
2023-04-15T12:34:51.018Z,25.80
2023-04-15T12:37:19.498Z,25.90
2023-04-15T12:39:50.582Z,25.90
2023-04-15T12:42:19.350Z,26.00
2023-04-15T12:44:47.274Z,25.90
2023-04-15T12:47:15.963Z,26.00
2023-04-15T12:49:44.107Z,26.00
2023-04-15T12:52:12.356Z,26.10
2023-04-15T12:54:40.777Z,26.10
2023-04-15T12:57:08.707Z,26.10
2023-04-15T12:59:37.156Z,26.10
2023-04-15T13:02:05.818Z,26.20
2023-04-15T13:04:33.717Z,26.20
2023-04-15T13:07:03.165Z,26.20
2023-04-15T13:09:31.407Z,26.30
2023-04-15T13:11:59.686Z,26.30
2023-04-15T13:14:27.823Z,26.40
2023-04-15T13:16:56.205Z,26.40
2023-04-15T13:19:24.500Z,26.40
2023-04-15T13:21:52.725Z,26.50
2023-04-15T13:24:20.950Z,26.50
2023-04-15T13:26:50.198Z,26.50
2023-04-15T13:29:18.770Z,26.60
2023-04-15T13:31:47.323Z,26.60
2023-04-15T13:34:15.433Z,26.60
2023-04-15T13:36:43.879Z,26.60
2023-04-15T13:39:12.159Z,26.60
2023-04-15T13:41:41.395Z,26.60
2023-04-15T13:44:09.193Z,26.70
2023-04-15T13:46:41.332Z,26.70
2023-04-15T13:49:09.665Z,26.70
2023-04-15T13:51:37.807Z,26.70
2023-04-15T13:54:06.254Z,26.70
2023-04-15T13:56:34.843Z,26.80
2023-04-15T13:59:03.552Z,26.80
2023-04-15T14:01:31.874Z,26.80
2023-04-15T14:03:59.924Z,26.90
2023-04-15T14:06:29.017Z,26.90
2023-04-15T14:08:57.183Z,26.90
2023-04-15T14:11:25.479Z,26.90
2023-04-15T14:13:53.622Z,26.90
2023-04-15T14:16:21.875Z,26.90
2023-04-15T14:18:50.161Z,26.90
2023-04-15T14:21:18.332Z,27.00
2023-04-15T14:23:46.487Z,27.00
2023-04-15T14:26:14.629Z,27.00
2023-04-15T14:28:42.998Z,27.10
2023-04-15T14:31:11.469Z,27.10
2023-04-15T14:33:39.285Z,27.10
2023-04-15T14:36:08.586Z,27.10
2023-04-15T14:38:37.421Z,27.10
2023-04-15T14:41:06.371Z,27.10
2023-04-15T14:43:35.487Z,27.10
2023-04-15T14:46:03.815Z,27.20
2023-04-15T14:48:32.666Z,27.20
2023-04-15T14:51:00.989Z,27.20
2023-04-15T14:53:29.129Z,27.20
2023-04-15T14:55:57.468Z,27.20
2023-04-15T14:58:25.499Z,27.30
2023-04-15T15:00:53.682Z,27.30
2023-04-15T15:03:22.383Z,27.30
2023-04-15T15:05:50.640Z,27.30
2023-04-15T15:08:18.948Z,27.30
2023-04-15T15:10:50.219Z,27.30
2023-04-15T15:13:19.126Z,27.20
2023-04-15T15:15:47.616Z,27.20
2023-04-15T15:18:16.907Z,27.20
2023-04-15T15:20:45.488Z,27.20
2023-04-15T15:23:15.470Z,27.20
2023-04-15T15:25:44.310Z,27.20
2023-04-15T15:28:12.694Z,27.10
2023-04-15T15:30:40.705Z,27.10
2023-04-15T15:33:08.938Z,27.10
2023-04-15T15:35:37.143Z,27.10
2023-04-15T15:38:05.502Z,27.10
2023-04-15T15:40:33.706Z,27.10
2023-04-15T15:43:01.897Z,27.10
2023-04-15T15:45:30.531Z,27.10
2023-04-15T15:47:58.944Z,27.20
2023-04-15T15:50:27.134Z,27.10
2023-04-15T15:53:02.378Z,27.10
2023-04-15T15:55:34.832Z,27.20
2023-04-15T15:58:03.061Z,27.20
2023-04-15T16:00:31.649Z,27.20
2023-04-15T16:05:30.603Z,27.20
2023-04-15T16:07:58.912Z,27.30
2023-04-15T16:10:27.152Z,27.30
2023-04-15T16:12:55.427Z,27.30
2023-04-15T16:15:25.668Z,27.30
2023-04-15T16:17:54.026Z,27.30
2023-04-15T16:20:22.142Z,27.30
2023-04-15T16:22:51.040Z,27.30
2023-04-15T16:25:19.428Z,27.30
2023-04-15T16:27:59.489Z,27.30
2023-04-15T16:30:31.854Z,27.30
2023-04-15T16:32:59.888Z,27.30
2023-04-15T16:35:28.162Z,27.30
2023-04-15T16:37:56.248Z,27.40
2023-04-15T16:40:24.892Z,27.30
2023-04-15T16:42:53.402Z,27.30
2023-04-15T16:45:21.900Z,27.30
2023-04-15T16:47:50.084Z,27.30
2023-04-15T16:50:18.373Z,27.30
2023-04-15T16:52:46.494Z,27.40
2023-04-15T16:55:14.668Z,27.40
2023-04-15T16:58:01.883Z,27.40
2023-04-15T17:00:31.586Z,27.40
2023-04-15T17:03:03.608Z,27.40
2023-04-15T17:05:32.086Z,27.40
2023-04-15T17:08:00.337Z,27.40
2023-04-15T17:10:29.037Z,27.40
2023-04-15T17:12:58.438Z,27.50
2023-04-15T17:15:28.285Z,27.40
2023-04-15T17:17:56.708Z,27.40
2023-04-15T17:20:24.781Z,27.50
2023-04-15T17:22:53.369Z,27.50
2023-04-15T17:25:21.742Z,27.60
2023-04-15T17:27:49.658Z,27.60
2023-04-15T17:30:17.910Z,27.60
2023-04-15T17:32:46.286Z,27.60
2023-04-15T17:35:14.407Z,27.60
2023-04-15T17:37:42.613Z,27.60
2023-04-15T17:40:11.427Z,27.60
2023-04-15T17:42:39.538Z,27.60
2023-04-15T17:45:08.575Z,27.60
2023-04-15T17:47:36.904Z,27.60
2023-04-15T17:50:05.279Z,27.60
2023-04-15T17:52:33.223Z,27.50
2023-04-15T17:55:01.560Z,27.50
2023-04-15T17:57:30.341Z,27.50
2023-04-15T17:59:58.688Z,27.50
2023-04-15T18:02:27.067Z,27.50
2023-04-15T18:04:55.306Z,27.50
2023-04-15T18:07:23.771Z,27.50
2023-04-15T18:09:52.706Z,27.40
2023-04-15T18:12:20.880Z,27.40
2023-04-15T18:14:49.118Z,27.40
2023-04-15T18:17:17.986Z,27.40
2023-04-15T18:19:55.519Z,27.50
2023-04-15T18:22:23.857Z,27.50
2023-04-15T18:24:52.188Z,27.40
2023-04-15T18:27:20.289Z,27.40
2023-04-15T18:29:48.471Z,27.40
2023-04-15T18:32:16.787Z,27.40
2023-04-15T18:34:44.873Z,27.40
2023-04-15T18:37:13.158Z,27.30
2023-04-15T18:39:41.436Z,27.30
2023-04-15T18:42:09.509Z,27.30
2023-04-15T18:44:37.791Z,27.30
2023-04-15T18:47:06.013Z,27.30
2023-04-15T18:49:34.182Z,27.30
2023-04-15T18:52:02.325Z,27.30
2023-04-15T18:54:30.598Z,27.30
2023-04-15T18:56:58.843Z,27.30
2023-04-15T18:59:30.229Z,27.30
2023-04-15T19:02:00.599Z,27.30
2023-04-15T19:04:29.323Z,27.20
2023-04-15T19:06:57.725Z,27.20
2023-04-15T19:09:26.008Z,27.20
2023-04-15T19:11:54.234Z,27.20
2023-04-15T19:14:22.653Z,27.20
2023-04-15T19:16:50.555Z,27.30
2023-04-15T19:19:18.888Z,27.20
2023-04-15T19:21:47.296Z,27.20
2023-04-15T19:24:15.181Z,27.20
2023-04-15T19:26:44.391Z,27.20
2023-04-15T19:29:12.453Z,27.20
2023-04-15T19:31:40.934Z,27.20
2023-04-15T19:34:09.374Z,27.20
2023-04-15T19:36:37.475Z,27.20
2023-04-15T19:39:06.211Z,27.20
2023-04-15T19:41:34.855Z,27.20
2023-04-15T19:44:02.998Z,27.20
2023-04-15T19:46:31.476Z,27.20
2023-04-15T19:49:00.861Z,27.20
2023-04-15T19:51:30.681Z,27.20
2023-04-15T19:53:58.873Z,27.20
2023-04-15T19:56:27.106Z,27.20
2023-04-15T19:58:55.819Z,27.20
2023-04-15T20:01:23.982Z,27.20
2023-04-15T20:03:54.870Z,27.20
2023-04-15T20:06:23.215Z,27.20
2023-04-15T20:08:51.431Z,27.20
2023-04-15T20:11:19.863Z,27.20
2023-04-15T20:13:47.696Z,27.20
2023-04-15T20:16:16.058Z,27.20
2023-04-15T20:18:43.948Z,27.20
2023-04-15T20:21:12.533Z,27.20
2023-04-15T20:23:41.708Z,27.20
2023-04-15T20:26:09.926Z,27.20
2023-04-15T20:28:38.215Z,27.20
2023-04-15T20:31:06.496Z,27.20
2023-04-15T20:33:34.771Z,27.20
2023-04-15T20:36:02.967Z,27.20
2023-04-15T20:38:31.318Z,27.20
2023-04-15T20:40:59.473Z,27.20
2023-04-15T20:43:27.582Z,27.20
2023-04-15T20:46:04.190Z,27.20
2023-04-15T20:48:38.244Z,27.20
2023-04-15T20:51:06.601Z,27.20
2023-04-15T20:53:34.619Z,27.20
2023-04-15T20:56:02.835Z,27.20
2023-04-15T20:58:31.011Z,27.20
2023-04-15T21:00:59.266Z,27.20
2023-04-15T21:03:27.771Z,27.20
2023-04-15T21:05:56.012Z,27.20
2023-04-15T21:08:24.322Z,27.20
2023-04-15T21:10:52.520Z,27.20
2023-04-15T21:13:20.919Z,27.20
2023-04-15T21:15:49.068Z,27.20
2023-04-15T21:18:17.231Z,27.20
2023-04-15T21:20:45.530Z,27.20
2023-04-15T21:23:13.973Z,27.20
2023-04-15T21:25:42.102Z,27.20
2023-04-15T21:28:10.843Z,27.20
2023-04-15T21:30:39.153Z,27.20
2023-04-15T21:33:07.244Z,27.20
2023-04-15T21:35:35.367Z,27.20
2023-04-15T21:38:03.668Z,27.20
2023-04-15T21:40:31.727Z,27.20
2023-04-15T21:42:59.989Z,27.10
2023-04-15T21:45:28.169Z,26.20
2023-04-15T21:47:56.738Z,25.50
2023-04-15T21:50:36.315Z,25.10
2023-04-15T21:53:05.312Z,24.90
2023-04-15T21:55:33.532Z,24.80
2023-04-15T21:58:01.825Z,24.70
2023-04-15T22:00:30.468Z,24.60
2023-04-15T22:02:58.934Z,24.60
2023-04-15T22:05:27.233Z,24.50
2023-04-15T22:07:55.699Z,24.50
2023-04-15T22:10:24.021Z,24.50
2023-04-15T22:12:52.444Z,24.40
2023-04-15T22:15:20.916Z,24.40
2023-04-15T22:17:49.443Z,24.30
2023-04-15T22:20:17.479Z,24.30
2023-04-15T22:22:45.961Z,24.20
2023-04-15T22:25:14.934Z,24.20
2023-04-15T22:27:43.102Z,24.10
2023-04-15T22:30:11.929Z,24.10
2023-04-15T22:32:40.289Z,24.10
2023-04-15T22:35:09.177Z,24.10
2023-04-15T22:37:37.016Z,24.10
2023-04-15T22:40:05.730Z,24.00
2023-04-15T22:42:33.742Z,23.90
2023-04-15T22:45:01.779Z,23.90
2023-04-15T22:47:29.818Z,23.90
2023-04-15T22:49:57.815Z,23.90
2023-04-15T22:52:30.606Z,23.80
2023-04-15T22:54:59.403Z,23.80
2023-04-15T22:57:28.870Z,23.70
2023-04-15T22:59:56.811Z,23.70
2023-04-15T23:02:24.998Z,23.70
2023-04-15T23:04:53.514Z,23.70
2023-04-15T23:07:21.457Z,23.60
2023-04-15T23:09:49.544Z,23.60
2023-04-15T23:12:17.460Z,23.60
2023-04-15T23:14:45.511Z,23.60
2023-04-15T23:17:13.378Z,23.60
2023-04-15T23:19:41.564Z,23.60
2023-04-15T23:22:09.887Z,23.50
2023-04-15T23:24:38.211Z,23.50
2023-04-15T23:27:06.281Z,23.50
2023-04-15T23:29:34.323Z,23.40
2023-04-15T23:32:02.622Z,23.50
2023-04-15T23:34:30.716Z,23.40
2023-04-15T23:36:58.546Z,23.40
2023-04-15T23:39:26.760Z,23.40
2023-04-15T23:41:54.791Z,23.30
2023-04-15T23:44:23.017Z,23.30
2023-04-15T23:46:50.886Z,23.30
2023-04-15T23:49:20.365Z,23.30
2023-04-15T23:51:48.590Z,23.30
2023-04-15T23:54:16.481Z,23.30
2023-04-15T23:56:44.379Z,23.30
2023-04-15T23:59:12.403Z,23.30
